createdAt,value
2022-11-16T00:00:39.160Z,15.27
2022-11-16T00:03:05.794Z,14.77
2022-11-16T00:05:32.508Z,15.00
2022-11-16T00:07:59.019Z,15.38
2022-11-16T00:10:25.749Z,15.57
2022-11-16T00:12:56.082Z,15.80
2022-11-16T00:15:22.615Z,15.13
2022-11-16T00:17:49.292Z,15.48
2022-11-16T00:20:15.911Z,15.10
2022-11-16T00:22:42.529Z,15.05
2022-11-16T00:25:09.273Z,15.20
2022-11-16T00:27:35.989Z,14.23
2022-11-16T00:30:11.976Z,13.75
2022-11-16T00:32:38.501Z,13.63
2022-11-16T00:35:05.439Z,13.43
2022-11-16T00:37:32.141Z,13.50
2022-11-16T00:39:59.234Z,13.00
2022-11-16T00:42:26.021Z,12.38
2022-11-16T00:44:52.506Z,12.38
2022-11-16T00:47:19.346Z,11.75
2022-11-16T00:49:46.020Z,12.13
2022-11-16T00:52:12.564Z,12.38
2022-11-16T00:54:39.549Z,12.20
2022-11-16T00:57:05.947Z,11.32
2022-11-16T00:59:35.501Z,10.10
2022-11-16T01:02:02.407Z,10.95
2022-11-16T01:10:06.209Z,10.10
2022-11-16T01:12:32.955Z,10.70
2022-11-16T01:14:59.969Z,9.82
2022-11-16T01:17:28.651Z,8.98
2022-11-16T01:19:58.012Z,9.25
2022-11-16T01:22:24.600Z,9.35
2022-11-16T01:24:51.085Z,9.27
2022-11-16T01:27:17.550Z,9.48
2022-11-16T01:29:44.188Z,8.88
2022-11-16T01:32:10.828Z,9.35
2022-11-16T01:34:37.453Z,9.57
2022-11-16T01:37:07.413Z,9.30
2022-11-16T01:39:34.152Z,9.73
2022-11-16T01:42:10.134Z,8.70
2022-11-16T01:52:54.539Z,3.30
2022-11-16T01:55:23.176Z,3.70
2022-11-16T01:57:50.792Z,3.55
2022-11-16T02:00:50.076Z,3.33
2022-11-16T02:04:01.727Z,1.55
2022-11-16T02:06:28.412Z,1.10
2022-11-16T02:09:33.078Z,1.23
2022-11-16T02:12:14.828Z,1.10
2022-11-16T02:14:41.338Z,1.42
2022-11-16T02:17:48.961Z,0.93
2022-11-16T02:23:49.533Z,1.45
2022-11-16T02:36:39.106Z,2.00
2022-11-16T02:39:13.803Z,1.85
2022-11-16T02:41:50.114Z,1.65
2022-11-16T02:44:24.740Z,2.13
2022-11-16T02:47:04.338Z,1.77
2022-11-16T02:49:33.835Z,2.05
2022-11-16T02:52:01.047Z,1.65
2022-11-16T02:54:31.649Z,2.05
2022-11-16T02:57:04.611Z,1.95
2022-11-16T02:59:33.792Z,1.50
2022-11-16T03:02:03.283Z,1.80
2022-11-16T03:04:39.520Z,2.28
2022-11-16T03:07:07.465Z,2.00
2022-11-16T03:09:36.160Z,1.98
2022-11-16T03:12:06.041Z,1.85
2022-11-16T03:14:38.017Z,2.88
2022-11-16T03:17:06.989Z,2.13
2022-11-16T03:19:36.545Z,1.90
2022-11-16T03:22:14.641Z,2.10
2022-11-16T03:24:47.824Z,2.88
2022-11-16T03:27:32.815Z,2.97
2022-11-16T03:30:12.164Z,2.80
2022-11-16T03:32:44.432Z,2.83
2022-11-16T03:35:15.420Z,2.97
2022-11-16T03:37:43.081Z,2.72
2022-11-16T03:40:10.898Z,2.80
2022-11-16T03:42:38.131Z,2.65
2022-11-16T03:45:23.226Z,2.90
2022-11-16T03:48:01.863Z,3.15
2022-11-16T03:50:31.634Z,2.53
2022-11-16T03:53:07.164Z,2.40
2022-11-16T03:55:36.666Z,3.20
2022-11-16T03:58:06.244Z,3.17
2022-11-16T04:01:03.991Z,2.55
2022-11-16T04:03:40.112Z,2.50
2022-11-16T04:06:25.556Z,3.30
2022-11-16T04:09:10.499Z,2.65
2022-11-16T04:12:03.295Z,2.50
2022-11-16T04:14:48.896Z,2.63
2022-11-16T04:17:35.057Z,3.13
2022-11-16T04:20:22.743Z,3.30
2022-11-16T04:23:11.219Z,3.10
2022-11-16T04:25:39.136Z,3.47
2022-11-16T04:28:16.583Z,3.33
2022-11-16T04:31:10.578Z,3.83
2022-11-16T04:34:06.506Z,3.88
2022-11-16T04:36:54.754Z,3.50
2022-11-16T04:39:22.136Z,3.47
2022-11-16T04:42:07.355Z,3.50
2022-11-16T04:44:55.689Z,3.58
2022-11-16T04:47:22.131Z,3.60
2022-11-16T04:49:48.833Z,3.63
2022-11-16T04:52:21.757Z,4.10
2022-11-16T04:54:48.607Z,3.50
2022-11-16T04:57:15.322Z,3.90
2022-11-16T04:59:41.815Z,3.88
2022-11-16T05:02:08.440Z,3.50
2022-11-16T05:04:35.860Z,4.10
2022-11-16T05:07:02.767Z,3.38
2022-11-16T05:09:29.707Z,3.10
2022-11-16T05:11:56.197Z,3.92
2022-11-16T05:14:22.752Z,3.95
2022-11-16T05:16:49.450Z,4.20
2022-11-16T05:19:37.126Z,3.60
2022-11-16T05:22:03.860Z,4.28
2022-11-16T05:24:36.546Z,4.15
2022-11-16T05:27:17.173Z,4.50
2022-11-16T05:29:43.923Z,3.60
2022-11-16T05:32:16.105Z,4.50
2022-11-16T05:34:45.810Z,4.47
2022-11-16T05:37:22.020Z,4.20
2022-11-16T05:39:52.712Z,4.32
2022-11-16T05:42:35.364Z,5.55
2022-11-16T05:45:05.544Z,5.15
2022-11-16T05:47:33.527Z,4.70
2022-11-16T05:50:00.527Z,5.25
2022-11-16T05:52:32.685Z,5.60
2022-11-16T05:54:59.355Z,5.28
2022-11-16T06:00:12.990Z,4.70
2022-11-16T06:02:42.616Z,4.68
2022-11-16T06:05:09.610Z,4.60
2022-11-16T06:07:39.709Z,5.20
2022-11-16T06:10:06.827Z,4.82
2022-11-16T06:12:33.437Z,5.30
2022-11-16T06:15:08.395Z,5.13
2022-11-16T06:17:35.181Z,5.60
2022-11-16T06:20:01.957Z,7.40
2022-11-16T06:22:28.888Z,9.23
2022-11-16T06:24:55.585Z,6.93
2022-11-16T06:27:21.997Z,5.25
2022-11-16T06:29:48.727Z,4.47
2022-11-16T06:32:15.204Z,5.35
2022-11-16T06:34:41.820Z,5.03
2022-11-16T06:37:08.465Z,4.88
2022-11-16T06:39:37.637Z,5.35
2022-11-16T06:42:04.232Z,4.82
2022-11-16T06:44:30.837Z,5.15
2022-11-16T06:46:57.407Z,5.13
2022-11-16T06:49:24.107Z,4.93
2022-11-16T06:51:50.753Z,7.50
2022-11-16T06:54:17.202Z,5.00
2022-11-16T06:56:43.705Z,6.65
2022-11-16T06:59:16.021Z,5.00
2022-11-16T07:01:46.027Z,5.90
2022-11-16T07:04:12.525Z,4.88
2022-11-16T07:06:39.081Z,4.70
2022-11-16T07:09:06.516Z,4.10
2022-11-16T07:11:33.721Z,4.22
2022-11-16T07:14:03.104Z,5.25
2022-11-16T07:16:29.774Z,4.97
2022-11-16T07:18:57.942Z,5.05
2022-11-16T07:21:25.154Z,4.25
2022-11-16T07:23:53.417Z,4.88
2022-11-16T07:26:20.054Z,5.03
2022-11-16T07:28:48.437Z,5.35
2022-11-16T07:31:15.900Z,4.68
2022-11-16T07:33:42.464Z,5.78
2022-11-16T07:36:13.608Z,4.40
2022-11-16T07:38:40.408Z,4.75
2022-11-16T07:41:07.980Z,4.70
2022-11-16T07:43:40.723Z,4.97
2022-11-16T07:46:44.832Z,4.70
2022-11-16T07:48:55.009Z,4.10
2022-11-16T07:51:21.637Z,5.13
2022-11-16T07:53:48.196Z,6.05
2022-11-16T07:56:14.715Z,4.53
2022-11-16T07:58:41.241Z,4.78
2022-11-16T08:01:12.110Z,5.03
2022-11-16T08:03:39.511Z,4.82
2022-11-16T08:06:16.984Z,4.63
2022-11-16T08:08:43.746Z,5.35
2022-11-16T08:11:11.951Z,5.65
2022-11-16T08:13:39.174Z,4.32
2022-11-16T08:16:10.998Z,4.38
2022-11-16T08:18:38.254Z,3.58
2022-11-16T08:21:05.533Z,3.25
2022-11-16T08:23:32.234Z,3.55
2022-11-16T08:25:59.755Z,4.25
2022-11-16T08:28:29.921Z,4.07
2022-11-16T08:30:57.259Z,4.13
2022-11-16T08:33:24.496Z,4.07
2022-11-16T08:35:51.623Z,4.07
2022-11-16T08:38:21.297Z,4.65
2022-11-16T08:40:51.036Z,3.25
2022-11-16T08:43:17.647Z,3.13
2022-11-16T08:45:48.336Z,3.50
2022-11-16T08:48:14.774Z,3.10
2022-11-16T08:51:15.473Z,4.20
2022-11-16T08:53:28.489Z,3.53
2022-11-16T08:55:55.020Z,3.47
2022-11-16T08:58:27.540Z,2.55
2022-11-16T09:00:54.010Z,2.95
2022-11-16T09:03:20.539Z,3.25
2022-11-16T09:05:47.018Z,2.85
2022-11-16T09:08:15.125Z,2.80
2022-11-16T09:10:41.620Z,3.75
2022-11-16T09:13:08.907Z,2.55
2022-11-16T09:15:35.421Z,2.85
2022-11-16T09:18:11.256Z,2.53
2022-11-16T09:20:44.431Z,2.72
2022-11-16T09:23:14.032Z,4.85
2022-11-16T09:25:40.851Z,3.78
2022-11-16T09:28:07.745Z,4.72
2022-11-16T09:30:34.452Z,8.10
2022-11-16T09:33:01.179Z,5.45
2022-11-16T09:35:27.640Z,4.68
2022-11-16T09:37:54.353Z,8.23
2022-11-16T09:40:21.028Z,4.50
2022-11-16T09:43:04.608Z,3.35
2022-11-16T09:45:36.913Z,3.10
2022-11-16T09:48:05.488Z,2.88
2022-11-16T09:50:55.929Z,3.30
2022-11-16T09:53:25.867Z,2.25
2022-11-16T09:55:54.117Z,3.58
2022-11-16T09:58:33.652Z,2.80
2022-11-16T10:01:03.665Z,2.53
2022-11-16T10:03:32.246Z,2.42
2022-11-16T10:06:06.480Z,3.28
2022-11-16T10:08:33.423Z,4.50
2022-11-16T10:11:06.509Z,2.40
2022-11-16T10:13:39.866Z,3.88
2022-11-16T10:16:32.247Z,2.85
2022-11-16T10:19:07.116Z,2.38
2022-11-16T10:21:55.822Z,2.50
2022-11-16T10:24:32.827Z,1.98
2022-11-16T10:27:04.275Z,2.15
2022-11-16T10:29:31.638Z,2.10
2022-11-16T10:32:07.430Z,2.28
2022-11-16T10:34:49.366Z,2.70
2022-11-16T10:37:16.505Z,2.10
2022-11-16T10:39:43.342Z,2.47
2022-11-16T10:42:16.228Z,2.38
2022-11-16T10:44:47.835Z,2.55
2022-11-16T10:47:21.327Z,2.90
2022-11-16T10:52:20.920Z,2.13
2022-11-16T10:54:47.550Z,2.17
2022-11-16T10:57:14.389Z,1.98
2022-11-16T10:59:53.414Z,2.20
2022-11-16T11:02:26.001Z,2.17
2022-11-16T11:05:02.313Z,2.80
2022-11-16T11:07:34.785Z,3.05
2022-11-16T11:10:01.995Z,2.35
2022-11-16T11:12:41.641Z,3.25
2022-11-16T11:15:30.002Z,1.80
2022-11-16T11:18:18.684Z,3.85
2022-11-16T11:20:57.756Z,2.10
2022-11-16T11:23:26.180Z,2.45
2022-11-16T11:26:36.208Z,3.40
2022-11-16T11:29:16.385Z,4.35
2022-11-16T11:32:09.724Z,3.20
2022-11-16T11:34:49.333Z,2.97
2022-11-16T11:37:35.733Z,3.83
2022-11-16T11:40:20.018Z,2.70
2022-11-16T11:45:37.761Z,2.80
2022-11-16T11:48:25.623Z,9.15
2022-11-16T11:51:10.215Z,5.20
2022-11-16T11:53:45.141Z,3.90
2022-11-16T11:56:16.652Z,3.47
2022-11-16T11:58:43.702Z,3.45
2022-11-16T12:01:25.088Z,2.58
2022-11-16T12:04:38.996Z,2.63
2022-11-16T12:10:05.423Z,3.95
2022-11-16T12:12:44.687Z,3.75
2022-11-16T12:18:43.855Z,2.88
2022-11-16T12:21:45.457Z,2.95
2022-11-16T12:28:12.597Z,2.17
2022-11-16T12:31:05.904Z,5.32
2022-11-16T12:33:51.268Z,2.30
2022-11-16T12:36:46.064Z,3.28
2022-11-16T12:42:25.029Z,5.05
2022-11-16T12:45:10.150Z,2.90
2022-11-16T12:47:56.006Z,2.17
2022-11-16T12:50:25.960Z,2.42
2022-11-16T12:53:08.823Z,2.35
2022-11-16T12:55:55.207Z,4.30
2022-11-16T12:58:34.859Z,3.08
2022-11-16T13:01:24.188Z,5.53
2022-11-16T13:04:14.062Z,3.90
2022-11-16T13:06:49.585Z,4.78
2022-11-16T13:09:24.240Z,3.03
2022-11-16T13:11:56.342Z,6.82
2022-11-16T13:14:36.627Z,10.20
2022-11-16T13:17:03.622Z,4.20
2022-11-16T13:19:30.612Z,4.35
2022-11-16T13:21:57.507Z,3.80
2022-11-16T13:24:33.597Z,3.58
2022-11-16T13:27:13.357Z,2.88
2022-11-16T13:29:46.765Z,3.55
2022-11-16T13:32:17.669Z,2.63
2022-11-16T13:34:45.085Z,3.55
2022-11-16T13:37:30.496Z,5.68
2022-11-16T13:40:00.691Z,3.72
2022-11-16T13:42:28.013Z,2.22
2022-11-16T13:45:02.588Z,2.60
2022-11-16T13:47:30.627Z,2.67
2022-11-16T13:50:01.657Z,3.55
2022-11-16T13:53:36.311Z,3.25
2022-11-16T13:55:40.795Z,2.38
2022-11-16T13:58:30.724Z,3.10
2022-11-16T14:01:02.758Z,2.75
2022-11-16T14:03:33.470Z,2.92
2022-11-16T14:06:00.220Z,2.40
2022-11-16T14:08:27.073Z,2.38
2022-11-16T14:10:53.617Z,2.47
2022-11-16T14:13:47.082Z,2.03
2022-11-16T14:16:19.700Z,2.55
2022-11-16T14:18:47.465Z,2.13
2022-11-16T14:21:20.462Z,2.22
2022-11-16T14:23:52.310Z,2.90
2022-11-16T14:26:22.032Z,4.53
2022-11-16T14:29:11.495Z,4.82
2022-11-16T14:31:57.754Z,3.05
2022-11-16T14:34:48.277Z,2.63
2022-11-16T14:37:35.693Z,2.80
2022-11-16T14:40:02.603Z,2.33
2022-11-16T14:42:38.077Z,4.10
2022-11-16T14:45:27.045Z,5.03
2022-11-16T14:47:55.962Z,8.85
2022-11-16T14:50:30.608Z,4.75
2022-11-16T14:53:03.626Z,2.85
2022-11-16T14:55:30.255Z,29.85
2022-11-16T14:58:26.228Z,9.43
2022-11-16T15:01:01.326Z,4.05
2022-11-16T15:03:30.223Z,14.68
2022-11-16T15:06:00.561Z,7.10
2022-11-16T15:08:32.022Z,10.40
2022-11-16T15:10:58.664Z,5.75
2022-11-16T15:13:25.639Z,3.97
2022-11-16T15:16:12.005Z,8.38
2022-11-16T15:18:42.380Z,10.35
2022-11-16T15:21:20.958Z,5.75
2022-11-16T15:24:02.177Z,5.07
2022-11-16T15:26:37.732Z,6.15
2022-11-16T15:29:10.042Z,7.43
2022-11-16T15:31:42.377Z,5.10
2022-11-16T15:34:12.173Z,9.45
2022-11-16T15:36:40.406Z,6.20
2022-11-16T15:39:12.629Z,9.38
2022-11-16T15:41:42.444Z,6.43
2022-11-16T15:44:15.554Z,5.53
2022-11-16T15:46:45.811Z,22.38
2022-11-16T15:49:32.554Z,6.28
2022-11-16T15:51:59.800Z,6.93
2022-11-16T15:54:31.727Z,8.52
2022-11-16T15:57:08.236Z,5.68
2022-11-16T15:59:36.098Z,10.93
2022-11-16T16:02:06.228Z,12.48
2022-11-16T16:04:33.041Z,9.18
2022-11-16T16:07:00.548Z,24.17
2022-11-16T16:09:27.544Z,11.18
2022-11-16T16:11:55.665Z,9.88
2022-11-16T16:14:29.735Z,18.38
2022-11-16T16:17:05.494Z,7.75
2022-11-16T16:19:35.825Z,13.95
2022-11-16T16:22:12.595Z,16.48
2022-11-16T16:24:44.175Z,13.40
2022-11-16T16:27:27.371Z,21.90
2022-11-16T16:29:54.732Z,23.20
2022-11-16T16:32:23.944Z,10.60
2022-11-16T16:34:51.456Z,7.50
2022-11-16T16:37:18.125Z,25.52
2022-11-16T16:39:50.952Z,17.55
2022-11-16T16:42:21.154Z,7.00
2022-11-16T16:44:48.408Z,15.02
2022-11-16T16:47:15.903Z,16.90
2022-11-16T16:49:42.720Z,10.68
2022-11-16T16:52:11.462Z,11.38
2022-11-16T16:54:41.216Z,8.88
2022-11-16T16:57:13.339Z,4.85
2022-11-16T16:59:40.545Z,6.55
2022-11-16T17:02:07.346Z,7.75
2022-11-16T17:04:33.874Z,10.57
2022-11-16T17:07:00.981Z,11.38
2022-11-16T17:09:27.817Z,6.72
2022-11-16T17:11:54.571Z,6.25
2022-11-16T17:14:24.441Z,8.45
2022-11-16T17:16:51.829Z,10.23
2022-11-16T17:19:18.651Z,8.05
2022-11-16T17:21:46.252Z,8.90
2022-11-16T17:24:13.014Z,5.60
2022-11-16T17:26:43.546Z,3.92
2022-11-16T17:29:16.346Z,3.53
2022-11-16T17:31:44.299Z,4.25
2022-11-16T17:34:18.780Z,5.97
2022-11-16T17:36:48.624Z,4.63
2022-11-16T17:39:16.373Z,10.27
2022-11-16T17:41:46.245Z,5.53
2022-11-16T17:44:17.197Z,14.68
2022-11-16T17:46:49.647Z,9.65
2022-11-16T17:49:16.520Z,5.78
2022-11-16T17:51:48.613Z,7.15
2022-11-16T17:54:15.648Z,8.20
2022-11-16T17:56:42.402Z,6.40
2022-11-16T17:59:09.312Z,6.65
2022-11-16T18:01:45.339Z,4.32
2022-11-16T18:04:16.206Z,3.95
2022-11-16T18:06:45.983Z,4.45
2022-11-16T18:09:12.573Z,4.00
2022-11-16T18:11:39.972Z,9.52
2022-11-16T18:14:06.737Z,8.15
2022-11-16T18:16:39.104Z,6.57
2022-11-16T18:19:06.454Z,5.18
2022-11-16T18:21:41.672Z,7.00
2022-11-16T18:24:08.802Z,5.60
2022-11-16T18:26:38.475Z,6.10
2022-11-16T18:29:09.295Z,4.10
2022-11-16T18:31:36.176Z,6.05
2022-11-16T18:34:03.007Z,3.45
2022-11-16T18:36:29.751Z,5.95
2022-11-16T18:38:59.150Z,4.57
2022-11-16T18:41:36.805Z,6.25
2022-11-16T18:44:03.957Z,5.43
2022-11-16T18:46:32.244Z,4.85
2022-11-16T18:48:59.352Z,4.18
2022-11-16T18:51:29.567Z,9.88
2022-11-16T18:53:59.336Z,6.93
2022-11-16T18:56:27.425Z,5.88
2022-11-16T18:59:06.112Z,5.13
2022-11-16T19:01:35.925Z,4.85
2022-11-16T19:04:17.238Z,4.47
2022-11-16T19:07:07.883Z,6.10
2022-11-16T19:09:43.507Z,4.82
2022-11-16T19:12:21.828Z,5.05
2022-11-16T19:14:51.292Z,3.17
2022-11-16T19:17:43.662Z,4.28
2022-11-16T19:20:18.238Z,4.05
2022-11-16T19:22:50.595Z,3.70
2022-11-16T19:25:17.947Z,3.85
2022-11-16T19:27:45.004Z,4.68
2022-11-16T19:30:12.863Z,4.78
2022-11-16T19:32:45.130Z,3.42
2022-11-16T19:35:12.274Z,3.65
2022-11-16T19:37:42.688Z,4.25
2022-11-16T19:40:12.420Z,4.10
2022-11-16T19:42:39.475Z,2.78
2022-11-16T19:47:56.093Z,3.58
2022-11-16T19:50:25.300Z,3.83
2022-11-16T19:52:57.977Z,3.40
2022-11-16T19:55:25.004Z,4.00
2022-11-16T19:58:18.230Z,2.92
2022-11-16T20:00:45.543Z,3.20
2022-11-16T20:03:12.539Z,3.45
2022-11-16T20:05:39.493Z,3.45
2022-11-16T20:08:10.600Z,2.90
2022-11-16T20:10:43.168Z,2.88
2022-11-16T20:13:16.055Z,3.60
2022-11-16T20:15:54.828Z,3.13
2022-11-16T20:18:22.234Z,3.45
2022-11-16T20:21:42.297Z,3.70
2022-11-16T20:27:14.505Z,3.75
2022-11-16T20:32:45.463Z,4.53
2022-11-16T20:35:34.858Z,35.20
2022-11-16T20:38:02.339Z,8.15
2022-11-16T20:44:21.298Z,8.02
2022-11-16T20:47:18.790Z,4.70
2022-11-16T20:52:53.974Z,3.47
2022-11-16T20:55:21.188Z,6.50
2022-11-16T20:57:50.906Z,10.70
2022-11-16T21:00:17.775Z,5.32
2022-11-16T21:02:44.306Z,8.48
2022-11-16T21:05:10.937Z,8.25
2022-11-16T21:07:38.299Z,5.85
2022-11-16T21:10:20.582Z,3.78
2022-11-16T21:13:07.238Z,4.45
2022-11-16T21:16:00.828Z,3.85
2022-11-16T21:18:30.705Z,4.15
2022-11-16T21:21:01.325Z,3.90
2022-11-16T21:23:28.607Z,3.78
2022-11-16T21:25:55.533Z,3.60
2022-11-16T21:28:25.774Z,3.75
2022-11-16T21:30:59.187Z,4.30
2022-11-16T21:33:26.199Z,3.42
2022-11-16T21:35:54.463Z,3.92
2022-11-16T21:38:28.224Z,4.13
2022-11-16T21:40:54.939Z,3.80
2022-11-16T21:43:21.552Z,3.42
2022-11-16T21:45:51.329Z,3.67
2022-11-16T21:48:17.892Z,3.58
2022-11-16T21:50:44.483Z,3.67
2022-11-16T21:53:11.241Z,3.67
2022-11-16T21:55:38.360Z,3.42
2022-11-16T21:58:19.436Z,3.70
2022-11-16T22:00:49.055Z,3.97
2022-11-16T22:03:15.781Z,3.72
2022-11-16T22:06:00.958Z,3.30
2022-11-16T22:08:30.673Z,3.47
2022-11-16T22:10:57.124Z,3.13
2022-11-16T22:13:23.923Z,2.70
2022-11-16T22:15:50.815Z,2.85
2022-11-16T22:18:17.353Z,2.20
2022-11-16T22:20:55.618Z,2.20
2022-11-16T22:23:32.821Z,2.60
2022-11-16T22:26:16.267Z,2.17
2022-11-16T22:29:01.634Z,2.50
2022-11-16T22:31:28.766Z,2.70
2022-11-16T22:34:07.753Z,2.45
2022-11-16T22:36:34.286Z,2.17
2022-11-16T22:39:01.090Z,2.47
2022-11-16T22:41:59.445Z,3.28
2022-11-16T22:44:50.991Z,2.10
2022-11-16T22:47:54.895Z,2.50
2022-11-16T23:03:44.956Z,2.30
2022-11-16T23:06:51.075Z,2.92
2022-11-16T23:10:10.640Z,1.92
2022-11-16T23:12:59.105Z,2.40
2022-11-16T23:16:00.718Z,2.42
2022-11-16T23:18:38.177Z,2.50
2022-11-16T23:21:23.379Z,2.35
2022-11-16T23:24:08.653Z,2.00
2022-11-16T23:29:44.680Z,3.25
2022-11-16T23:32:17.341Z,1.85
2022-11-16T23:34:44.092Z,2.70
2022-11-16T23:37:11.179Z,1.90
2022-11-16T23:39:37.740Z,2.15
2022-11-16T23:42:23.119Z,2.60
2022-11-16T23:44:49.598Z,2.00
2022-11-16T23:47:25.412Z,2.70
2022-11-16T23:49:52.114Z,2.55
2022-11-16T23:52:18.673Z,2.92
2022-11-16T23:54:45.254Z,2.30
2022-11-16T23:57:11.857Z,2.22
2022-11-16T23:59:38.431Z,2.50
